createdAt,value
2023-05-19T00:01:15.237Z,102824.47
2023-05-19T00:03:52.631Z,102820.59
2023-05-19T00:06:24.094Z,102823.31
2023-05-19T00:08:58.041Z,102823.53
2023-05-19T00:11:27.991Z,102816.88
2023-05-19T00:13:56.614Z,102817.47
2023-05-19T00:16:26.157Z,102817.19
2023-05-19T00:18:54.423Z,102827.38
2023-05-19T00:21:22.475Z,102828.09
2023-05-19T00:23:50.558Z,102823.41
2023-05-19T00:26:18.579Z,102818.47
2023-05-19T00:28:47.911Z,102818.25
2023-05-19T00:31:15.940Z,102817.41
2023-05-19T00:33:43.994Z,102812.88
2023-05-19T00:36:11.930Z,102818.78
2023-05-19T00:38:40.083Z,102810.88
2023-05-19T00:41:08.675Z,102814.41
2023-05-19T00:43:36.595Z,102806.59
2023-05-19T00:46:07.407Z,102807.94
2023-05-19T00:48:35.417Z,102803.31
2023-05-19T00:51:06.462Z,102804.63
2023-05-19T00:53:35.523Z,102801.00
2023-05-19T00:56:04.282Z,102808.34
2023-05-19T00:58:33.084Z,102808.84
2023-05-19T01:01:04.251Z,102810.03
2023-05-19T01:03:36.129Z,102806.19
2023-05-19T01:06:06.046Z,102816.72
2023-05-19T01:08:34.561Z,102813.75
2023-05-19T01:11:02.641Z,102816.13
2023-05-19T01:13:31.281Z,102808.09
2023-05-19T01:16:06.828Z,102817.22
2023-05-19T01:18:49.007Z,102812.97
2023-05-19T01:21:36.534Z,102814.88
2023-05-19T01:24:18.093Z,102813.50
2023-05-19T01:27:11.087Z,102809.81
2023-05-19T01:30:02.136Z,102810.09
2023-05-19T01:32:32.064Z,102809.59
2023-05-19T01:35:00.202Z,102815.25
2023-05-19T01:37:28.569Z,102800.63
2023-05-19T01:39:56.915Z,102799.09
2023-05-19T01:42:25.056Z,102802.69
2023-05-19T01:44:53.551Z,102813.38
2023-05-19T01:47:21.504Z,102815.00
2023-05-19T01:49:50.847Z,102816.25
2023-05-19T01:52:18.865Z,102812.34
2023-05-19T01:54:46.789Z,102818.00
2023-05-19T01:57:29.243Z,102819.81
2023-05-19T02:00:05.707Z,102821.91
2023-05-19T02:02:42.383Z,102829.63
2023-05-19T02:05:16.854Z,102831.72
2023-05-19T02:07:48.531Z,102827.63
2023-05-19T02:10:20.598Z,102822.53
2023-05-19T02:12:51.259Z,102819.72
2023-05-19T02:15:22.825Z,102825.66
2023-05-19T02:17:54.431Z,102818.97
2023-05-19T02:20:23.806Z,102821.34
2023-05-19T02:22:51.793Z,102816.16
2023-05-19T02:25:19.820Z,102814.16
2023-05-19T02:27:49.164Z,102816.00
2023-05-19T02:30:17.126Z,102814.47
2023-05-19T02:32:46.913Z,102812.03
2023-05-19T02:35:14.978Z,102810.34
2023-05-19T02:37:44.416Z,102813.13
2023-05-19T02:40:12.712Z,102802.22
2023-05-19T02:42:40.720Z,102804.75
2023-05-19T02:45:09.660Z,102807.91
2023-05-19T02:47:38.412Z,102805.25
2023-05-19T02:50:07.607Z,102804.94
2023-05-19T02:52:35.527Z,102807.53
2023-05-19T02:55:05.020Z,102802.63
2023-05-19T02:57:34.268Z,102804.34
2023-05-19T03:00:02.436Z,102801.97
2023-05-19T03:02:30.819Z,102801.97
2023-05-19T03:05:01.630Z,102804.84
2023-05-19T03:07:30.780Z,102797.63
2023-05-19T03:09:58.741Z,102797.75
2023-05-19T03:12:28.053Z,102796.97
2023-05-19T03:14:55.967Z,102797.75
2023-05-19T03:17:23.983Z,102791.97
2023-05-19T03:19:52.255Z,102790.91
2023-05-19T03:22:20.989Z,102787.16
2023-05-19T03:24:51.135Z,102783.91
2023-05-19T03:27:19.110Z,102780.72
2023-05-19T03:29:48.444Z,102782.38
2023-05-19T03:32:16.465Z,102775.25
2023-05-19T03:34:44.382Z,102785.47
2023-05-19T03:37:13.007Z,102786.41
2023-05-19T03:39:40.927Z,102788.44
2023-05-19T03:42:09.073Z,102788.53
2023-05-19T03:44:37.051Z,102786.78
2023-05-19T03:47:07.078Z,102791.97
2023-05-19T03:49:35.017Z,102797.19
2023-05-19T03:52:03.455Z,102792.19
2023-05-19T03:54:31.776Z,102796.09
2023-05-19T03:56:59.756Z,102791.59
2023-05-19T03:59:27.988Z,102790.25
2023-05-19T04:01:57.914Z,102796.22
2023-05-19T04:04:28.453Z,102803.88
2023-05-19T04:06:56.528Z,102800.94
2023-05-19T04:09:24.679Z,102809.00
2023-05-19T04:11:52.617Z,102809.28
2023-05-19T04:14:21.248Z,102800.94
2023-05-19T04:16:49.273Z,102799.09
2023-05-19T04:19:17.243Z,102802.94
2023-05-19T04:21:47.056Z,102802.75
2023-05-19T04:24:14.962Z,102799.66
2023-05-19T04:26:46.100Z,102808.91
2023-05-19T04:29:18.184Z,102805.34
2023-05-19T04:31:46.753Z,102813.22
2023-05-19T04:34:14.684Z,102809.84
2023-05-19T04:36:42.689Z,102808.81
2023-05-19T04:39:12.437Z,102811.97
2023-05-19T04:41:40.646Z,102801.75
2023-05-19T04:44:09.106Z,102812.03
2023-05-19T04:46:37.113Z,102808.22
2023-05-19T04:49:05.052Z,102812.91
2023-05-19T04:51:33.032Z,102806.69
2023-05-19T04:54:01.579Z,102805.34
2023-05-19T04:56:31.009Z,102805.50
2023-05-19T04:58:58.960Z,102813.59
2023-05-19T05:01:27.012Z,102809.25
2023-05-19T05:03:56.228Z,102805.50
2023-05-19T05:06:24.202Z,102817.25
2023-05-19T05:08:52.671Z,102811.38
2023-05-19T05:11:21.446Z,102812.34
2023-05-19T05:13:51.469Z,102810.59
2023-05-19T05:16:19.950Z,102807.00
2023-05-19T05:18:48.490Z,102808.09
2023-05-19T05:21:16.995Z,102808.94
2023-05-19T05:23:45.487Z,102811.06
2023-05-19T05:26:19.339Z,102813.84
2023-05-19T05:28:47.268Z,102813.69
2023-05-19T05:31:17.070Z,102816.53
2023-05-19T05:33:45.156Z,102812.97
2023-05-19T05:36:13.766Z,102809.19
2023-05-19T05:38:41.730Z,102818.22
2023-05-19T05:41:09.734Z,102810.53
2023-05-19T05:43:37.760Z,102816.38
2023-05-19T05:46:05.834Z,102813.72
2023-05-19T05:48:36.002Z,102813.84
2023-05-19T05:51:04.573Z,102818.47
2023-05-19T05:53:33.202Z,102825.69
2023-05-19T05:56:01.760Z,102820.97
2023-05-19T05:58:29.865Z,102824.53
2023-05-19T06:00:58.788Z,102831.03
2023-05-19T06:03:27.006Z,102818.63
2023-05-19T06:05:56.628Z,102818.06
2023-05-19T06:08:24.678Z,102822.16
2023-05-19T06:10:52.652Z,102823.78
2023-05-19T06:13:24.091Z,102814.25
2023-05-19T06:15:52.768Z,102818.00
2023-05-19T06:18:20.769Z,102818.34
2023-05-19T06:20:48.716Z,102810.28
2023-05-19T06:23:18.027Z,102811.00
2023-05-19T06:25:46.170Z,102818.59
2023-05-19T06:28:14.115Z,102813.50
2023-05-19T06:30:42.100Z,102811.03
2023-05-19T06:33:10.052Z,102808.94
2023-05-19T06:35:38.025Z,102814.63
2023-05-19T06:38:05.997Z,102812.97
2023-05-19T06:40:36.085Z,102815.19
2023-05-19T06:43:06.997Z,102827.53
2023-05-19T06:45:34.979Z,102804.03
2023-05-19T06:48:03.069Z,102805.34
2023-05-19T06:50:31.333Z,102812.25
2023-05-19T06:52:59.589Z,102807.78
2023-05-19T06:55:27.581Z,102798.50
2023-05-19T06:57:57.465Z,102810.16
2023-05-19T07:00:25.450Z,102808.00
2023-05-19T07:02:53.570Z,102813.19
2023-05-19T07:05:21.807Z,102811.00
2023-05-19T07:07:51.881Z,102818.53
2023-05-19T07:10:21.501Z,102814.41
2023-05-19T07:12:49.541Z,102825.19
2023-05-19T07:15:18.913Z,102829.25
2023-05-19T07:17:46.904Z,102826.22
2023-05-19T07:20:15.036Z,102811.66
2023-05-19T07:22:42.999Z,102825.00
2023-05-19T07:25:11.495Z,102824.41
2023-05-19T07:27:39.452Z,102826.50
2023-05-19T07:30:08.826Z,102831.63
2023-05-19T07:32:38.257Z,102821.63
2023-05-19T07:35:07.568Z,102831.09
2023-05-19T07:37:36.078Z,102823.00
2023-05-19T07:40:04.487Z,102823.00
2023-05-19T07:42:32.404Z,102817.28
2023-05-19T07:45:00.324Z,102812.19
2023-05-19T07:47:28.380Z,102812.13
2023-05-19T07:49:57.695Z,102811.31
2023-05-19T07:52:25.671Z,102813.84
2023-05-19T07:54:54.076Z,102812.91
2023-05-19T07:57:22.160Z,102811.88
2023-05-19T07:59:50.111Z,102815.47
2023-05-19T08:02:18.213Z,102807.03
2023-05-19T08:04:46.281Z,102807.81
2023-05-19T08:07:15.642Z,102805.44
2023-05-19T08:09:43.641Z,102814.53
2023-05-19T08:12:11.624Z,102811.41
2023-05-19T08:14:39.550Z,102809.78
2023-05-19T08:17:07.494Z,102811.28
2023-05-19T08:19:35.569Z,102805.94
2023-05-19T08:22:06.058Z,102801.78
2023-05-19T08:24:35.515Z,102805.69
2023-05-19T08:27:04.881Z,102803.91
2023-05-19T08:29:32.935Z,102806.81
2023-05-19T08:32:02.529Z,102802.13
2023-05-19T08:34:30.515Z,102804.50
2023-05-19T08:36:59.778Z,102801.88
2023-05-19T08:39:27.759Z,102790.03
2023-05-19T08:41:57.316Z,102797.81
2023-05-19T08:44:25.309Z,102794.38
2023-05-19T08:46:55.773Z,102790.66
2023-05-19T08:49:28.630Z,102778.53
2023-05-19T08:52:11.189Z,102781.09
2023-05-19T08:54:43.834Z,102774.09
2023-05-19T08:57:13.860Z,102779.03
2023-05-19T08:59:42.472Z,102778.28
2023-05-19T09:02:12.963Z,102768.59
2023-05-19T09:04:41.633Z,102784.16
2023-05-19T09:07:10.934Z,102781.94
2023-05-19T09:09:40.860Z,102769.09
2023-05-19T09:12:08.783Z,102770.69
2023-05-19T09:14:38.230Z,102771.66
2023-05-19T09:17:06.734Z,102775.34
2023-05-19T09:19:34.943Z,102769.88
2023-05-19T09:22:04.775Z,102774.22
2023-05-19T09:24:33.076Z,102770.41
2023-05-19T09:27:01.038Z,102776.81
2023-05-19T09:29:28.995Z,102767.25
2023-05-19T09:32:01.652Z,102755.19
2023-05-19T09:34:29.713Z,102763.16
2023-05-19T09:36:58.048Z,102770.81
2023-05-19T09:39:26.318Z,102754.44
2023-05-19T09:41:54.704Z,102750.09
2023-05-19T09:44:29.271Z,102751.06
2023-05-19T09:46:59.830Z,102734.94
2023-05-19T09:49:29.770Z,102742.78
2023-05-19T09:51:58.181Z,102728.81
2023-05-19T09:54:27.626Z,102733.19
2023-05-19T09:57:00.081Z,102733.09
2023-05-19T09:59:31.522Z,102737.19
2023-05-19T10:02:03.170Z,102724.97
2023-05-19T10:04:32.064Z,102725.00
2023-05-19T10:07:00.511Z,102721.06
2023-05-19T10:09:29.977Z,102726.78
2023-05-19T10:11:59.143Z,102720.97
2023-05-19T10:14:27.651Z,102725.31
2023-05-19T10:16:56.727Z,102722.06
2023-05-19T10:19:26.943Z,102717.72
2023-05-19T10:21:55.154Z,102712.00
2023-05-19T10:24:23.319Z,102709.31
2023-05-19T10:26:54.892Z,102698.06
2023-05-19T10:29:26.816Z,102698.50
2023-05-19T10:31:55.702Z,102697.28
2023-05-19T10:34:42.027Z,102697.06
2023-05-19T10:37:17.975Z,102694.38
2023-05-19T10:39:46.409Z,102685.69
2023-05-19T10:42:18.315Z,102694.19
2023-05-19T10:44:53.450Z,102689.16
2023-05-19T10:47:25.047Z,102696.38
2023-05-19T10:49:55.788Z,102700.41
2023-05-19T10:52:26.158Z,102695.19
2023-05-19T10:54:55.131Z,102690.72
2023-05-19T10:57:27.678Z,102694.31
2023-05-19T10:59:57.034Z,102685.88
2023-05-19T11:02:46.121Z,102687.03
2023-05-19T11:05:18.159Z,102676.78
2023-05-19T11:07:56.211Z,102677.84
2023-05-19T11:10:24.691Z,102670.44
2023-05-19T11:12:53.250Z,102672.16
2023-05-19T11:15:27.451Z,102670.22
2023-05-19T11:17:56.376Z,102666.50
2023-05-19T11:20:27.224Z,102665.09
2023-05-19T11:23:08.378Z,102666.75
2023-05-19T11:25:43.932Z,102670.81
2023-05-19T11:28:13.333Z,102667.72
2023-05-19T11:30:44.631Z,102660.88
2023-05-19T11:33:13.479Z,102658.75
2023-05-19T11:35:43.459Z,102667.91
2023-05-19T11:38:12.570Z,102654.22
2023-05-19T11:40:41.160Z,102660.50
2023-05-19T11:43:09.143Z,102656.53
2023-05-19T11:45:37.572Z,102661.63
2023-05-19T11:48:07.041Z,102664.50
2023-05-19T11:50:36.984Z,102653.41
2023-05-19T11:53:06.471Z,102652.81
2023-05-19T11:55:34.503Z,102656.50
2023-05-19T11:58:05.456Z,102657.06
2023-05-19T12:00:39.450Z,102647.97
2023-05-19T12:03:08.333Z,102642.88
2023-05-19T12:05:42.070Z,102649.56
2023-05-19T12:08:12.850Z,102649.03
2023-05-19T12:10:41.525Z,102650.72
2023-05-19T12:13:10.555Z,102650.97
2023-05-19T12:15:39.419Z,102647.63
2023-05-19T12:18:07.820Z,102638.72
2023-05-19T12:20:36.606Z,102648.34
2023-05-19T12:23:04.834Z,102641.50
2023-05-19T12:25:34.494Z,102632.34
2023-05-19T12:28:04.571Z,102632.41
2023-05-19T12:30:34.420Z,102625.97
2023-05-19T12:33:03.735Z,102625.69
2023-05-19T12:35:33.539Z,102633.47
2023-05-19T12:38:04.565Z,102630.25
2023-05-19T12:40:35.135Z,102624.47
2023-05-19T12:43:03.606Z,102625.88
2023-05-19T12:45:35.602Z,102621.63
2023-05-19T12:48:05.388Z,102621.56
2023-05-19T12:50:34.189Z,102603.97
2023-05-19T12:53:02.582Z,102613.38
2023-05-19T12:55:31.141Z,102602.84
2023-05-19T12:58:00.473Z,102595.72
2023-05-19T13:00:31.164Z,102601.06
2023-05-19T13:03:04.985Z,102595.50
2023-05-19T13:05:34.794Z,102597.59
2023-05-19T13:08:05.573Z,102594.38
2023-05-19T13:10:34.987Z,102600.09
2023-05-19T13:13:07.465Z,102589.88
2023-05-19T13:15:37.980Z,102594.31
2023-05-19T13:18:09.026Z,102584.31
2023-05-19T13:20:37.383Z,102597.66
2023-05-19T13:23:05.991Z,102599.31
2023-05-19T13:25:34.449Z,102592.16
2023-05-19T13:28:05.256Z,102590.38
2023-05-19T13:30:39.524Z,102591.56
2023-05-19T13:33:08.091Z,102599.53
2023-05-19T13:35:38.105Z,102586.94
2023-05-19T13:38:06.824Z,102583.97
2023-05-19T13:40:35.665Z,102578.00
2023-05-19T13:43:04.261Z,102578.50
2023-05-19T13:45:32.216Z,102577.00
2023-05-19T13:48:01.686Z,102585.84
2023-05-19T13:50:29.733Z,102584.09
2023-05-19T13:52:57.662Z,102583.09
2023-05-19T13:55:27.494Z,102579.47
2023-05-19T13:57:55.970Z,102580.94
2023-05-19T14:00:24.060Z,102580.25
2023-05-19T14:02:52.779Z,102568.91
2023-05-19T14:05:22.341Z,102566.16
2023-05-19T14:07:50.320Z,102570.03
2023-05-19T14:10:18.333Z,102563.91
2023-05-19T14:13:14.020Z,102552.53
2023-05-19T14:15:37.955Z,102555.63
2023-05-19T14:18:07.028Z,102564.06
2023-05-19T14:20:36.708Z,102562.06
2023-05-19T14:23:04.830Z,102559.38
2023-05-19T14:25:32.863Z,102557.34
2023-05-19T14:28:00.997Z,102564.94
2023-05-19T14:30:29.070Z,102556.91
2023-05-19T14:32:57.420Z,102554.91
2023-05-19T14:35:26.100Z,102555.03
2023-05-19T14:37:55.549Z,102548.97
2023-05-19T14:40:23.519Z,102555.38
2023-05-19T14:42:51.480Z,102557.59
2023-05-19T14:45:19.554Z,102551.13
2023-05-19T14:47:48.037Z,102544.88
2023-05-19T14:50:16.161Z,102558.22
2023-05-19T14:52:44.097Z,102553.84
2023-05-19T14:55:13.434Z,102557.56
2023-05-19T14:57:41.393Z,102568.59
2023-05-19T15:00:10.391Z,102556.75
2023-05-19T15:02:38.426Z,102555.53
2023-05-19T15:05:06.966Z,102555.19
2023-05-19T15:07:34.921Z,102556.88
2023-05-19T15:10:03.286Z,102559.28
2023-05-19T15:12:34.859Z,102560.25
2023-05-19T15:15:02.910Z,102554.47
2023-05-19T15:17:30.990Z,102556.88
2023-05-19T15:19:58.933Z,102539.94
2023-05-19T15:22:27.715Z,102548.75
2023-05-19T15:24:55.729Z,102540.50
2023-05-19T15:27:23.959Z,102544.66
2023-05-19T15:29:53.357Z,102552.22
2023-05-19T15:32:21.393Z,102542.31
2023-05-19T15:34:49.405Z,102552.28
2023-05-19T15:37:17.452Z,102557.47
2023-05-19T15:39:45.373Z,102550.78
2023-05-19T15:42:13.336Z,102560.91
2023-05-19T15:44:41.326Z,102543.47
2023-05-19T15:47:10.789Z,102554.06
2023-05-19T15:49:38.824Z,102541.16
2023-05-19T15:52:07.370Z,102540.84
2023-05-19T15:54:35.328Z,102548.38
2023-05-19T15:57:03.244Z,102539.16
2023-05-19T15:59:31.175Z,102537.91
2023-05-19T16:01:59.177Z,102531.41
2023-05-19T16:04:28.493Z,102535.72
2023-05-19T16:06:56.582Z,102536.56
2023-05-19T16:09:24.570Z,102540.66
2023-05-19T16:11:52.529Z,102541.00
2023-05-19T16:14:20.488Z,102538.47
2023-05-19T16:16:48.499Z,102534.66
2023-05-19T16:19:16.587Z,102535.88
2023-05-19T16:21:45.965Z,102530.75
2023-05-19T16:24:13.961Z,102546.13
2023-05-19T16:26:41.967Z,102545.31
2023-05-19T16:29:09.873Z,102544.53
2023-05-19T16:31:37.879Z,102544.81
2023-05-19T16:34:05.888Z,102538.63
2023-05-19T16:36:33.950Z,102546.53
2023-05-19T16:39:03.338Z,102539.22
2023-05-19T16:41:31.261Z,102536.38
2023-05-19T16:43:59.235Z,102531.84
2023-05-19T16:46:29.093Z,102528.38
2023-05-19T16:48:57.918Z,102529.88
2023-05-19T16:51:25.856Z,102536.84
2023-05-19T16:53:53.805Z,102535.25
2023-05-19T16:56:23.197Z,102530.34
2023-05-19T16:58:51.340Z,102535.72
2023-05-19T17:01:19.304Z,102526.38
2023-05-19T17:03:47.317Z,102531.59
2023-05-19T17:06:15.359Z,102532.59
2023-05-19T17:08:43.348Z,102528.13
2023-05-19T17:11:11.486Z,102533.94
2023-05-19T17:13:42.317Z,102522.59
2023-05-19T17:16:10.503Z,102527.78
2023-05-19T17:18:38.526Z,102530.94
2023-05-19T17:21:06.523Z,102529.19
2023-05-19T17:23:34.603Z,102533.53
2023-05-19T17:26:03.272Z,102530.88
2023-05-19T17:28:31.437Z,102527.56
2023-05-19T17:31:01.484Z,102529.72
2023-05-19T17:33:29.508Z,102528.72
2023-05-19T17:35:57.630Z,102536.44
2023-05-19T17:38:25.658Z,102537.28
2023-05-19T17:40:53.798Z,102542.09
2023-05-19T17:43:21.721Z,102538.69
2023-05-19T17:45:49.693Z,102547.09
2023-05-19T17:48:19.028Z,102542.22
2023-05-19T17:50:56.255Z,102553.19
2023-05-19T17:53:24.725Z,102553.69
2023-05-19T17:55:54.528Z,102550.69
2023-05-19T17:58:23.008Z,102547.59
2023-05-19T18:00:51.620Z,102558.41
2023-05-19T18:03:21.684Z,102556.41
2023-05-19T18:05:50.460Z,102559.53
2023-05-19T18:08:18.785Z,102564.50
2023-05-19T18:10:48.601Z,102567.22
2023-05-19T18:13:16.582Z,102567.78
2023-05-19T18:15:44.568Z,102572.03
2023-05-19T18:18:12.776Z,102585.81
2023-05-19T18:20:44.778Z,102574.06
2023-05-19T18:23:12.833Z,102570.03
2023-05-19T18:25:40.799Z,102560.78
2023-05-19T18:28:09.161Z,102560.28
2023-05-19T18:30:37.093Z,102564.78
2023-05-19T18:33:05.898Z,102564.69
2023-05-19T18:35:33.913Z,102568.91
2023-05-19T18:38:03.222Z,102573.50
2023-05-19T18:40:31.395Z,102576.09
2023-05-19T18:42:59.587Z,102578.94
2023-05-19T18:45:27.535Z,102575.97
2023-05-19T18:47:55.496Z,102583.50
2023-05-19T18:50:23.526Z,102580.03
2023-05-19T18:52:51.481Z,102588.25
2023-05-19T18:55:20.785Z,102590.00
2023-05-19T18:57:48.762Z,102593.44
2023-05-19T19:00:18.128Z,102592.53
2023-05-19T19:02:46.095Z,102585.06
2023-05-19T19:05:14.095Z,102593.53
2023-05-19T19:07:43.191Z,102592.84
2023-05-19T19:10:11.262Z,102589.34
2023-05-19T19:12:43.013Z,102588.47
2023-05-19T19:15:12.114Z,102595.94
2023-05-19T19:17:41.210Z,102593.75
2023-05-19T19:20:10.222Z,102588.50
2023-05-19T19:22:38.305Z,102584.66
2023-05-19T19:25:06.994Z,102591.91
2023-05-19T19:27:35.739Z,102598.00
2023-05-19T19:30:05.880Z,102591.66
2023-05-19T19:32:33.950Z,102607.78
2023-05-19T19:35:01.973Z,102605.84
2023-05-19T19:37:29.968Z,102617.88
2023-05-19T19:39:57.940Z,102618.44
2023-05-19T19:42:25.904Z,102624.47
2023-05-19T19:44:56.133Z,102621.44
2023-05-19T19:47:25.554Z,102626.50
2023-05-19T19:49:53.510Z,102624.47
2023-05-19T19:52:21.489Z,102633.25
2023-05-19T19:54:49.428Z,102632.63
2023-05-19T19:57:17.766Z,102632.63
2023-05-19T19:59:45.813Z,102632.53
2023-05-19T20:02:13.781Z,102632.69
2023-05-19T20:04:57.459Z,102636.25
2023-05-19T20:07:25.499Z,102629.56
2023-05-19T20:09:53.467Z,102652.66
2023-05-19T20:12:21.404Z,102640.88
2023-05-19T20:14:51.420Z,102643.56
2023-05-19T20:17:19.362Z,102646.00
2023-05-19T20:19:48.791Z,102648.19
2023-05-19T20:22:16.753Z,102660.63
2023-05-19T20:24:44.801Z,102659.50
2023-05-19T20:27:12.747Z,102653.25
2023-05-19T20:29:40.691Z,102648.69
2023-05-19T20:32:08.700Z,102655.00
2023-05-19T20:34:36.809Z,102658.78
2023-05-19T20:37:06.475Z,102652.41
2023-05-19T20:39:34.533Z,102652.16
2023-05-19T20:42:02.499Z,102647.53
2023-05-19T20:44:30.415Z,102658.81
2023-05-19T20:46:58.368Z,102654.75
2023-05-19T20:49:26.319Z,102654.03
2023-05-19T20:51:54.690Z,102652.91
2023-05-19T20:54:24.031Z,102659.38
2023-05-19T20:56:52.537Z,102658.75
2023-05-19T20:59:20.505Z,102658.31
2023-05-19T21:01:48.487Z,102659.53
2023-05-19T21:04:16.517Z,102665.88
2023-05-19T21:06:44.550Z,102666.63
2023-05-19T21:09:12.493Z,102660.84
2023-05-19T21:11:42.333Z,102661.94
2023-05-19T21:14:10.255Z,102659.41
2023-05-19T21:16:38.970Z,102664.91
2023-05-19T21:19:07.487Z,102662.34
2023-05-19T21:21:36.266Z,102654.59
2023-05-19T21:24:04.372Z,102652.94
2023-05-19T21:26:32.284Z,102671.47
2023-05-19T21:29:01.597Z,102667.03
2023-05-19T21:31:29.615Z,102662.63
2023-05-19T21:33:57.548Z,102663.34
2023-05-19T21:36:25.756Z,102668.22
2023-05-19T21:38:53.730Z,102671.56
2023-05-19T21:41:22.382Z,102674.56
2023-05-19T21:43:50.378Z,102673.38
2023-05-19T21:46:19.765Z,102671.47
2023-05-19T21:48:47.697Z,102673.53
2023-05-19T21:51:15.688Z,102678.53
2023-05-19T21:53:43.617Z,102677.00
2023-05-19T21:56:11.563Z,102687.78
2023-05-19T21:58:39.730Z,102686.69
2023-05-19T22:01:08.050Z,102687.41
2023-05-19T22:03:37.429Z,102687.50
2023-05-19T22:06:06.567Z,102699.25
2023-05-19T22:08:34.520Z,102692.72
2023-05-19T22:11:02.456Z,102691.75
2023-05-19T22:13:30.686Z,102690.38
2023-05-19T22:15:58.671Z,102692.53
2023-05-19T22:18:26.602Z,102687.41
2023-05-19T22:20:55.964Z,102685.22
2023-05-19T22:23:23.888Z,102689.59
2023-05-19T22:25:51.833Z,102681.06
2023-05-19T22:28:19.856Z,102680.19
2023-05-19T22:30:47.816Z,102674.81
2023-05-19T22:33:16.129Z,102677.53
2023-05-19T22:35:44.196Z,102673.00
2023-05-19T22:38:13.540Z,102683.78
2023-05-19T22:40:41.484Z,102685.72
2023-05-19T22:43:09.411Z,102684.47
2023-05-19T22:45:37.526Z,102686.72
2023-05-19T22:48:06.329Z,102688.22
2023-05-19T22:50:34.366Z,102688.09
2023-05-19T22:53:02.374Z,102697.22
2023-05-19T22:55:32.286Z,102690.91
2023-05-19T22:58:00.420Z,102690.53
2023-05-19T23:00:28.335Z,102695.53
2023-05-19T23:02:58.256Z,102697.41
2023-05-19T23:05:26.376Z,102693.56
2023-05-19T23:07:54.394Z,102694.19
2023-05-19T23:10:22.315Z,102701.91
2023-05-19T23:12:51.654Z,102706.59
2023-05-19T23:15:19.657Z,102704.00
2023-05-19T23:17:47.608Z,102705.34
2023-05-19T23:20:15.677Z,102703.19
2023-05-19T23:22:43.622Z,102705.78
2023-05-19T23:25:11.584Z,102703.75
2023-05-19T23:27:39.556Z,102714.59
2023-05-19T23:30:10.185Z,102718.47
2023-05-19T23:32:38.207Z,102704.69
2023-05-19T23:35:13.882Z,102708.78
2023-05-19T23:37:41.847Z,102705.56
2023-05-19T23:40:10.415Z,102700.59
2023-05-19T23:42:38.579Z,102707.53
2023-05-19T23:45:09.288Z,102713.63
2023-05-19T23:47:37.376Z,102709.56
2023-05-19T23:50:05.839Z,102707.88
2023-05-19T23:52:33.796Z,102704.78
2023-05-19T23:55:03.290Z,102708.25
2023-05-19T23:57:31.243Z,102707.66
2023-05-19T23:59:59.828Z,102709.81
